createdAt,value
2023-04-30T00:01:32.083Z,100251.91
2023-04-30T00:03:58.736Z,100263.50
2023-04-30T00:06:28.071Z,100265.25
2023-04-30T00:08:54.900Z,100262.34
2023-04-30T00:11:21.463Z,100264.44
2023-04-30T00:13:48.102Z,100269.66
2023-04-30T00:16:14.637Z,100274.19
2023-04-30T00:18:41.171Z,100266.88
2023-04-30T00:21:07.767Z,100264.34
2023-04-30T00:23:34.249Z,100270.38
2023-04-30T00:26:00.933Z,100257.81
2023-04-30T00:28:27.618Z,100269.56
2023-04-30T00:30:54.213Z,100274.91
2023-04-30T00:33:21.029Z,100271.19
2023-04-30T00:35:47.676Z,100281.59
2023-04-30T00:38:14.301Z,100277.19
2023-04-30T00:40:42.177Z,100282.72
2023-04-30T00:43:08.829Z,100277.72
2023-04-30T00:45:35.479Z,100285.06
2023-04-30T00:48:02.340Z,100286.31
2023-04-30T00:50:29.463Z,100286.75
2023-04-30T00:52:56.106Z,100286.06
2023-04-30T00:55:22.743Z,100290.56
2023-04-30T00:57:49.228Z,100297.00
2023-04-30T01:00:15.963Z,100299.25
2023-04-30T01:02:43.957Z,100296.16
2023-04-30T01:05:10.650Z,100303.22
2023-04-30T01:07:45.100Z,100310.38
2023-04-30T01:10:15.812Z,100308.28
2023-04-30T01:13:06.987Z,100311.28
2023-04-30T01:15:51.669Z,100312.31
2023-04-30T01:18:35.536Z,100315.31
2023-04-30T01:21:04.996Z,100308.03
2023-04-30T01:24:09.757Z,100316.22
2023-04-30T01:26:57.854Z,100320.94
2023-04-30T01:29:25.058Z,100321.75
2023-04-30T01:31:51.786Z,100320.00
2023-04-30T01:34:18.590Z,100334.50
2023-04-30T01:37:22.133Z,100337.81
2023-04-30T01:40:19.001Z,100334.22
2023-04-30T01:42:57.113Z,100338.28
2023-04-30T01:46:02.889Z,100341.06
2023-04-30T01:48:41.597Z,100341.88
2023-04-30T01:51:11.221Z,100347.13
2023-04-30T01:53:42.759Z,100350.38
2023-04-30T01:56:18.855Z,100358.69
2023-04-30T01:58:46.651Z,100366.69
2023-04-30T02:01:29.745Z,100379.41
2023-04-30T02:03:56.814Z,100364.88
2023-04-30T02:06:28.610Z,100372.84
2023-04-30T02:09:03.271Z,100384.75
2023-04-30T02:11:30.187Z,100391.59
2023-04-30T02:13:56.752Z,100395.81
2023-04-30T02:16:24.286Z,100403.94
2023-04-30T02:18:51.314Z,100405.22
2023-04-30T02:21:18.365Z,100414.34
2023-04-30T02:23:45.942Z,100412.63
2023-04-30T02:26:12.413Z,100421.75
2023-04-30T02:28:39.054Z,100419.53
2023-04-30T02:31:06.014Z,100413.44
2023-04-30T02:33:32.988Z,100424.53
2023-04-30T02:36:00.385Z,100421.97
2023-04-30T02:38:26.976Z,100429.16
2023-04-30T02:40:53.491Z,100430.47
2023-04-30T02:43:20.432Z,100435.44
2023-04-30T02:45:47.189Z,100433.31
2023-04-30T02:48:13.867Z,100431.50
2023-04-30T02:50:40.476Z,100435.84
2023-04-30T02:53:06.975Z,100436.31
2023-04-30T02:55:33.548Z,100441.03
2023-04-30T02:58:00.268Z,100443.63
2023-04-30T03:00:27.125Z,100444.88
2023-04-30T03:02:54.703Z,100448.53
2023-04-30T03:05:21.509Z,100455.69
2023-04-30T03:07:48.012Z,100453.38
2023-04-30T03:10:14.640Z,100461.31
2023-04-30T03:12:41.221Z,100463.19
2023-04-30T03:15:08.438Z,100460.63
2023-04-30T03:17:34.954Z,100460.56
2023-04-30T03:20:01.481Z,100467.22
2023-04-30T03:22:28.034Z,100467.84
2023-04-30T03:24:54.657Z,100471.75
2023-04-30T03:27:21.237Z,100478.53
2023-04-30T03:29:48.814Z,100473.72
2023-04-30T03:32:15.558Z,100485.28
2023-04-30T03:34:42.551Z,100486.63
2023-04-30T03:37:09.086Z,100484.19
2023-04-30T03:39:35.897Z,100483.38
2023-04-30T03:42:03.759Z,100484.88
2023-04-30T03:44:32.614Z,100487.66
2023-04-30T03:46:59.155Z,100489.91
2023-04-30T03:49:25.779Z,100504.66
2023-04-30T03:51:52.286Z,100500.34
2023-04-30T03:54:18.769Z,100510.34
2023-04-30T03:56:45.211Z,100504.06
2023-04-30T03:59:11.701Z,100506.53
2023-04-30T04:01:38.423Z,100508.97
2023-04-30T04:04:05.138Z,100511.13
2023-04-30T04:06:32.260Z,100516.97
2023-04-30T04:08:58.933Z,100514.09
2023-04-30T04:11:26.691Z,100519.75
2023-04-30T04:13:53.371Z,100523.50
2023-04-30T04:16:19.980Z,100528.75
2023-04-30T04:18:46.717Z,100525.97
2023-04-30T04:21:13.244Z,100534.78
2023-04-30T04:23:39.771Z,100532.94
2023-04-30T04:26:06.246Z,100541.06
2023-04-30T04:28:32.805Z,100548.03
2023-04-30T04:30:59.656Z,100550.00
2023-04-30T04:33:26.235Z,100545.47
2023-04-30T04:35:52.755Z,100552.13
2023-04-30T04:38:19.500Z,100554.91
2023-04-30T04:40:55.769Z,100560.81
2023-04-30T04:43:22.375Z,100568.19
2023-04-30T04:45:48.946Z,100569.50
2023-04-30T04:48:15.626Z,100577.19
2023-04-30T04:50:42.475Z,100582.63
2023-04-30T04:53:09.084Z,100576.84
2023-04-30T04:55:36.174Z,100583.53
2023-04-30T04:58:03.379Z,100579.25
2023-04-30T05:00:29.960Z,100580.56
2023-04-30T05:02:56.848Z,100584.66
2023-04-30T05:05:24.190Z,100589.13
2023-04-30T05:07:52.461Z,100589.16
2023-04-30T05:10:18.975Z,100584.44
2023-04-30T05:12:45.565Z,100596.34
2023-04-30T05:15:12.591Z,100595.31
2023-04-30T05:17:39.117Z,100590.84
2023-04-30T05:20:07.304Z,100596.84
2023-04-30T05:22:34.038Z,100602.03
2023-04-30T05:25:00.554Z,100601.91
2023-04-30T05:27:27.656Z,100596.53
2023-04-30T05:29:54.365Z,100603.22
2023-04-30T05:32:22.923Z,100609.59
2023-04-30T05:34:49.949Z,100608.84
2023-04-30T05:37:17.766Z,100603.38
2023-04-30T05:39:44.323Z,100607.91
2023-04-30T05:42:10.869Z,100620.91
2023-04-30T05:44:37.486Z,100615.31
2023-04-30T05:47:04.127Z,100617.31
2023-04-30T05:49:30.553Z,100622.34
2023-04-30T05:51:57.450Z,100617.22
2023-04-30T05:54:24.202Z,100619.88
2023-04-30T05:56:50.960Z,100619.09
2023-04-30T05:59:17.540Z,100621.66
2023-04-30T06:01:44.194Z,100623.03
2023-04-30T06:04:11.679Z,100630.34
2023-04-30T06:06:38.687Z,100627.09
2023-04-30T06:09:05.234Z,100627.94
2023-04-30T06:11:31.910Z,100632.56
2023-04-30T06:13:58.585Z,100630.31
2023-04-30T06:16:25.273Z,100629.28
2023-04-30T06:18:53.569Z,100633.69
2023-04-30T06:21:20.954Z,100630.16
2023-04-30T06:23:47.480Z,100637.63
2023-04-30T06:26:15.286Z,100637.19
2023-04-30T06:28:41.812Z,100644.59
2023-04-30T06:31:08.419Z,100645.19
2023-04-30T06:33:34.970Z,100641.59
2023-04-30T06:36:01.575Z,100638.72
2023-04-30T06:38:28.866Z,100631.47
2023-04-30T06:40:55.493Z,100632.59
2023-04-30T06:43:21.889Z,100636.72
2023-04-30T06:45:48.323Z,100638.34
2023-04-30T06:48:14.876Z,100631.13
2023-04-30T06:50:45.032Z,100633.81
2023-04-30T06:53:12.496Z,100634.50
2023-04-30T06:55:39.608Z,100638.81
2023-04-30T06:58:06.230Z,100644.91
2023-04-30T07:00:32.795Z,100640.91
2023-04-30T07:03:02.681Z,100645.34
2023-04-30T07:05:29.952Z,100640.94
2023-04-30T07:07:57.405Z,100638.97
2023-04-30T07:10:24.103Z,100644.88
2023-04-30T07:12:50.803Z,100637.59
2023-04-30T07:15:17.423Z,100641.56
2023-04-30T07:17:44.471Z,100645.03
2023-04-30T07:20:12.048Z,100655.19
2023-04-30T07:22:38.579Z,100648.44
2023-04-30T07:25:05.917Z,100656.47
2023-04-30T07:27:32.714Z,100651.31
2023-04-30T07:29:59.306Z,100649.75
2023-04-30T07:32:27.362Z,100650.19
2023-04-30T07:34:54.103Z,100652.81
2023-04-30T07:37:22.778Z,100642.72
2023-04-30T07:39:49.461Z,100639.34
2023-04-30T07:42:16.065Z,100653.06
2023-04-30T07:44:42.480Z,100655.97
2023-04-30T07:47:09.957Z,100660.09
2023-04-30T07:49:36.694Z,100656.94
2023-04-30T07:52:03.594Z,100657.00
2023-04-30T07:54:30.246Z,100657.47
2023-04-30T07:56:56.759Z,100657.47
2023-04-30T07:59:24.514Z,100664.31
2023-04-30T08:01:51.781Z,100662.53
2023-04-30T08:04:18.294Z,100654.81
2023-04-30T08:06:44.914Z,100657.00
2023-04-30T08:09:11.614Z,100667.03
2023-04-30T08:11:38.075Z,100665.56
2023-04-30T08:14:05.521Z,100664.28
2023-04-30T08:16:32.013Z,100654.13
2023-04-30T08:18:59.258Z,100664.06
2023-04-30T08:21:28.044Z,100664.56
2023-04-30T08:23:55.026Z,100662.88
2023-04-30T08:26:21.968Z,100667.81
2023-04-30T08:28:48.442Z,100659.75
2023-04-30T08:31:15.233Z,100665.22
2023-04-30T08:33:41.695Z,100657.00
2023-04-30T08:36:08.280Z,100676.31
2023-04-30T08:38:34.913Z,100674.34
2023-04-30T08:41:11.456Z,100673.81
2023-04-30T08:43:38.334Z,100674.94
2023-04-30T08:46:05.640Z,100677.53
2023-04-30T08:48:32.472Z,100682.50
2023-04-30T08:51:03.612Z,100673.16
2023-04-30T08:53:31.592Z,100673.97
2023-04-30T08:55:58.396Z,100676.84
2023-04-30T08:58:25.286Z,100663.94
2023-04-30T09:00:51.756Z,100667.16
2023-04-30T09:03:18.534Z,100671.16
2023-04-30T09:05:46.251Z,100669.13
2023-04-30T09:08:18.382Z,100670.66
2023-04-30T09:10:44.921Z,100668.13
2023-04-30T09:13:12.228Z,100680.00
2023-04-30T09:15:41.636Z,100667.47
2023-04-30T09:18:10.033Z,100674.00
2023-04-30T09:20:37.004Z,100676.25
2023-04-30T09:23:11.148Z,100669.00
2023-04-30T09:25:42.248Z,100670.06
2023-04-30T09:28:12.837Z,100678.53
2023-04-30T09:30:42.345Z,100675.50
2023-04-30T09:33:11.476Z,100676.09
2023-04-30T09:35:42.614Z,100675.13
2023-04-30T09:38:31.974Z,100671.94
2023-04-30T09:41:01.788Z,100666.25
2023-04-30T09:43:29.939Z,100672.44
2023-04-30T09:45:59.263Z,100665.66
2023-04-30T09:48:29.930Z,100671.78
2023-04-30T09:50:56.834Z,100661.19
2023-04-30T09:53:24.321Z,100654.28
2023-04-30T09:55:51.541Z,100660.72
2023-04-30T09:58:19.076Z,100659.78
2023-04-30T10:00:46.839Z,100665.03
2023-04-30T10:03:14.571Z,100653.91
2023-04-30T10:05:47.554Z,100650.81
2023-04-30T10:08:22.143Z,100649.69
2023-04-30T10:10:52.561Z,100645.69
2023-04-30T10:13:20.449Z,100649.50
2023-04-30T10:15:50.442Z,100643.66
2023-04-30T10:18:28.406Z,100645.66
2023-04-30T10:20:55.272Z,100637.22
2023-04-30T10:23:22.210Z,100639.03
2023-04-30T10:25:49.341Z,100641.09
2023-04-30T10:28:16.115Z,100643.09
2023-04-30T10:30:45.774Z,100642.84
2023-04-30T10:33:16.822Z,100641.63
2023-04-30T10:35:50.979Z,100634.28
2023-04-30T10:38:25.548Z,100631.59
2023-04-30T10:40:57.304Z,100626.94
2023-04-30T10:43:24.727Z,100630.38
2023-04-30T10:45:51.462Z,100631.69
2023-04-30T10:48:24.741Z,100625.84
2023-04-30T10:50:52.728Z,100628.63
2023-04-30T10:53:20.738Z,100632.75
2023-04-30T10:55:58.626Z,100622.63
2023-04-30T10:58:34.196Z,100626.28
2023-04-30T11:01:12.838Z,100611.34
2023-04-30T11:04:08.630Z,100622.09
2023-04-30T11:06:55.660Z,100605.56
2023-04-30T11:09:37.477Z,100594.88
2023-04-30T11:12:05.254Z,100609.44
2023-04-30T11:14:33.126Z,100611.84
2023-04-30T11:17:04.441Z,100612.97
2023-04-30T11:19:34.579Z,100611.31
2023-04-30T11:22:04.139Z,100603.22
2023-04-30T11:24:58.965Z,100606.06
2023-04-30T11:27:27.062Z,100594.56
2023-04-30T11:29:55.170Z,100592.78
2023-04-30T11:32:23.390Z,100595.81
2023-04-30T11:34:50.576Z,100588.66
2023-04-30T11:37:23.457Z,100599.41
2023-04-30T11:39:50.093Z,100605.13
2023-04-30T11:42:18.807Z,100597.97
2023-04-30T11:44:46.069Z,100601.72
2023-04-30T11:47:15.978Z,100604.00
2023-04-30T11:49:45.532Z,100602.38
2023-04-30T11:52:15.148Z,100595.34
2023-04-30T11:54:41.622Z,100596.19
2023-04-30T11:57:08.169Z,100591.44
2023-04-30T11:59:41.780Z,100591.19
2023-04-30T12:02:08.383Z,100598.47
2023-04-30T12:04:36.797Z,100593.06
2023-04-30T12:07:04.274Z,100592.50
2023-04-30T12:09:30.776Z,100572.78
2023-04-30T12:11:58.304Z,100572.66
2023-04-30T12:14:25.370Z,100566.47
2023-04-30T12:16:52.894Z,100565.63
2023-04-30T12:19:22.108Z,100571.13
2023-04-30T12:21:49.300Z,100573.31
2023-04-30T12:24:17.133Z,100567.19
2023-04-30T12:26:45.341Z,100568.34
2023-04-30T12:29:15.860Z,100569.25
2023-04-30T12:31:43.168Z,100574.88
2023-04-30T12:34:12.641Z,100567.09
2023-04-30T12:36:42.597Z,100567.78
2023-04-30T12:39:10.953Z,100559.72
2023-04-30T12:41:47.501Z,100560.63
2023-04-30T12:44:25.121Z,100561.94
2023-04-30T12:46:56.184Z,100558.34
2023-04-30T12:49:43.275Z,100551.53
2023-04-30T12:52:12.444Z,100550.69
2023-04-30T12:54:39.976Z,100541.03
2023-04-30T12:57:11.996Z,100549.88
2023-04-30T12:59:40.170Z,100543.44
2023-04-30T13:02:08.348Z,100541.59
2023-04-30T13:04:36.151Z,100536.16
2023-04-30T13:07:03.587Z,100532.16
2023-04-30T13:09:31.862Z,100532.41
2023-04-30T13:11:58.318Z,100532.56
2023-04-30T13:14:25.045Z,100530.13
2023-04-30T13:16:51.586Z,100527.66
2023-04-30T13:19:18.165Z,100531.31
2023-04-30T13:21:44.776Z,100527.28
2023-04-30T13:24:11.683Z,100526.09
2023-04-30T13:26:39.233Z,100519.81
2023-04-30T13:29:05.690Z,100524.72
2023-04-30T13:31:32.222Z,100530.44
2023-04-30T13:33:59.862Z,100505.00
2023-04-30T13:36:27.110Z,100509.38
2023-04-30T13:38:53.799Z,100508.97
2023-04-30T13:41:22.038Z,100504.69
2023-04-30T13:43:49.334Z,100502.38
2023-04-30T13:46:16.643Z,100515.81
2023-04-30T13:48:43.329Z,100504.50
2023-04-30T13:51:09.822Z,100494.34
2023-04-30T13:53:37.287Z,100497.91
2023-04-30T13:56:04.082Z,100503.97
2023-04-30T13:58:30.732Z,100499.41
2023-04-30T14:00:57.327Z,100506.84
2023-04-30T14:03:24.302Z,100492.72
2023-04-30T14:05:51.165Z,100494.28
2023-04-30T14:08:17.604Z,100493.66
2023-04-30T14:10:44.218Z,100499.50
2023-04-30T14:13:11.038Z,100487.53
2023-04-30T14:15:38.641Z,100489.94
2023-04-30T14:18:05.420Z,100489.91
2023-04-30T14:20:35.650Z,100483.00
2023-04-30T14:23:02.956Z,100489.94
2023-04-30T14:25:29.510Z,100484.66
2023-04-30T14:27:55.955Z,100481.63
2023-04-30T14:30:22.571Z,100481.69
2023-04-30T14:32:49.358Z,100481.94
2023-04-30T14:35:15.980Z,100480.63
2023-04-30T14:37:43.009Z,100480.69
2023-04-30T14:40:10.130Z,100472.16
2023-04-30T14:42:36.807Z,100467.41
2023-04-30T14:45:03.979Z,100468.75
2023-04-30T14:47:31.204Z,100463.25
2023-04-30T14:49:59.022Z,100465.50
2023-04-30T14:52:25.742Z,100465.34
2023-04-30T14:54:52.564Z,100468.59
2023-04-30T14:57:19.312Z,100458.94
2023-04-30T14:59:45.720Z,100464.09
2023-04-30T15:02:12.429Z,100468.41
2023-04-30T15:04:39.089Z,100471.03
2023-04-30T15:07:05.765Z,100461.75
2023-04-30T15:09:32.312Z,100460.81
2023-04-30T15:11:58.865Z,100452.63
2023-04-30T15:14:25.485Z,100455.78
2023-04-30T15:16:52.138Z,100450.88
2023-04-30T15:19:18.722Z,100456.78
2023-04-30T15:21:46.977Z,100453.63
2023-04-30T15:24:16.119Z,100450.06
2023-04-30T15:26:42.734Z,100440.88
2023-04-30T15:29:10.537Z,100441.59
2023-04-30T15:31:37.560Z,100439.66
2023-04-30T15:34:05.456Z,100445.59
2023-04-30T15:36:33.306Z,100441.63
2023-04-30T15:38:59.894Z,100444.72
2023-04-30T15:41:26.473Z,100443.75
2023-04-30T15:43:53.071Z,100451.84
2023-04-30T15:46:19.665Z,100450.22
2023-04-30T15:48:46.265Z,100439.13
2023-04-30T15:51:12.830Z,100446.81
2023-04-30T15:53:39.567Z,100439.63
2023-04-30T15:56:06.351Z,100433.09
2023-04-30T15:58:32.924Z,100442.16
2023-04-30T16:00:59.598Z,100441.56
2023-04-30T16:03:26.317Z,100439.25
2023-04-30T16:05:54.068Z,100424.44
2023-04-30T16:08:20.863Z,100426.63
2023-04-30T16:10:47.352Z,100422.59
2023-04-30T16:13:13.868Z,100429.66
2023-04-30T16:15:40.362Z,100427.47
2023-04-30T16:18:07.801Z,100420.38
2023-04-30T16:20:34.344Z,100421.38
2023-04-30T16:23:00.900Z,100420.41
2023-04-30T16:25:27.353Z,100419.38
2023-04-30T16:27:54.116Z,100417.13
2023-04-30T16:30:20.731Z,100413.88
2023-04-30T16:32:47.749Z,100416.75
2023-04-30T16:35:14.507Z,100411.75
2023-04-30T16:37:41.099Z,100414.25
2023-04-30T16:40:08.337Z,100408.69
2023-04-30T16:42:34.998Z,100410.75
2023-04-30T16:45:01.973Z,100408.50
2023-04-30T16:47:28.834Z,100417.88
2023-04-30T16:49:56.706Z,100414.75
2023-04-30T16:52:23.793Z,100414.44
2023-04-30T16:54:50.900Z,100403.97
2023-04-30T16:57:17.429Z,100406.22
2023-04-30T16:59:44.062Z,100403.97
2023-04-30T17:02:10.664Z,100398.31
2023-04-30T17:04:37.429Z,100396.97
2023-04-30T17:07:04.093Z,100405.41
2023-04-30T17:09:31.362Z,100408.16
2023-04-30T17:11:58.100Z,100403.47
2023-04-30T17:14:24.721Z,100406.34
2023-04-30T17:16:51.275Z,100406.72
2023-04-30T17:19:18.106Z,100409.25
2023-04-30T17:21:44.696Z,100408.91
2023-04-30T17:24:11.605Z,100405.66
2023-04-30T17:26:38.453Z,100410.09
2023-04-30T17:29:06.294Z,100409.91
2023-04-30T17:31:33.312Z,100418.28
2023-04-30T17:34:02.822Z,100415.88
2023-04-30T17:36:30.357Z,100413.63
2023-04-30T17:38:57.096Z,100412.81
2023-04-30T17:41:24.079Z,100422.13
2023-04-30T17:43:51.706Z,100412.25
2023-04-30T17:46:18.466Z,100414.28
2023-04-30T17:48:46.122Z,100410.53
2023-04-30T17:51:12.655Z,100412.78
2023-04-30T17:53:39.358Z,100416.16
2023-04-30T17:56:06.309Z,100417.75
2023-04-30T17:58:34.787Z,100413.88
2023-04-30T18:01:03.400Z,100408.00
2023-04-30T18:03:30.388Z,100415.06
2023-04-30T18:05:57.093Z,100409.69
2023-04-30T18:08:23.784Z,100418.66
2023-04-30T18:10:50.381Z,100410.06
2023-04-30T18:13:17.060Z,100411.50
2023-04-30T18:15:43.661Z,100414.78
2023-04-30T18:18:10.271Z,100417.91
2023-04-30T18:20:37.054Z,100428.41
2023-04-30T18:23:05.259Z,100427.63
2023-04-30T18:25:34.330Z,100427.31
2023-04-30T18:28:01.514Z,100422.00
2023-04-30T18:30:28.199Z,100424.72
2023-04-30T18:32:54.842Z,100424.22
2023-04-30T18:35:22.206Z,100422.13
2023-04-30T18:37:49.726Z,100426.91
2023-04-30T18:40:16.609Z,100413.38
2023-04-30T18:42:43.146Z,100420.94
2023-04-30T18:45:11.437Z,100423.97
2023-04-30T18:47:40.869Z,100421.63
2023-04-30T18:50:15.445Z,100426.09
2023-04-30T18:52:42.639Z,100433.03
2023-04-30T18:55:11.683Z,100429.28
2023-04-30T18:57:40.561Z,100435.06
2023-04-30T19:00:09.872Z,100438.16
2023-04-30T19:02:37.001Z,100436.91
2023-04-30T19:05:03.939Z,100428.22
2023-04-30T19:07:31.621Z,100432.84
2023-04-30T19:09:58.680Z,100439.59
2023-04-30T19:12:25.294Z,100436.41
2023-04-30T19:14:52.040Z,100434.03
2023-04-30T19:17:21.464Z,100444.84
2023-04-30T19:19:50.253Z,100438.22
2023-04-30T19:22:17.199Z,100448.09
2023-04-30T19:24:43.905Z,100438.13
2023-04-30T19:27:11.269Z,100437.72
2023-04-30T19:29:39.567Z,100444.81
2023-04-30T19:32:06.612Z,100443.53
2023-04-30T19:34:33.521Z,100438.50
2023-04-30T19:37:02.571Z,100435.75
2023-04-30T19:39:36.076Z,100442.94
2023-04-30T19:42:04.252Z,100436.31
2023-04-30T19:44:30.925Z,100431.25
2023-04-30T19:46:58.918Z,100436.34
2023-04-30T19:49:26.615Z,100439.81
2023-04-30T19:51:53.879Z,100439.66
2023-04-30T19:54:21.391Z,100447.34
2023-04-30T19:56:47.955Z,100453.72
2023-04-30T19:59:15.526Z,100459.13
2023-04-30T20:01:42.515Z,100459.28
2023-04-30T20:04:09.897Z,100464.69
2023-04-30T20:06:36.684Z,100462.38
2023-04-30T20:09:04.818Z,100463.53
2023-04-30T20:11:33.013Z,100465.50
2023-04-30T20:13:59.532Z,100456.19
2023-04-30T20:16:26.295Z,100453.56
2023-04-30T20:18:52.763Z,100444.91
2023-04-30T20:21:20.639Z,100442.13
2023-04-30T20:23:47.291Z,100448.50
2023-04-30T20:26:13.884Z,100445.88
2023-04-30T20:28:40.595Z,100446.38
2023-04-30T20:31:09.571Z,100446.00
2023-04-30T20:33:36.271Z,100450.25
2023-04-30T20:36:03.103Z,100443.38
2023-04-30T20:38:30.929Z,100447.28
2023-04-30T20:40:58.839Z,100444.66
2023-04-30T20:43:25.303Z,100447.19
2023-04-30T20:45:56.670Z,100446.88
2023-04-30T20:48:25.972Z,100439.69
2023-04-30T20:50:52.962Z,100450.56
2023-04-30T20:53:21.110Z,100449.91
2023-04-30T20:55:47.703Z,100442.78
2023-04-30T20:58:14.441Z,100447.28
2023-04-30T21:00:41.100Z,100439.63
2023-04-30T21:03:08.432Z,100442.22
2023-04-30T21:05:35.257Z,100451.28
2023-04-30T21:08:02.031Z,100449.84
2023-04-30T21:10:35.359Z,100441.81
2023-04-30T21:13:06.375Z,100443.50
2023-04-30T21:15:35.185Z,100448.16
2023-04-30T21:18:02.002Z,100452.38
2023-04-30T21:20:28.630Z,100446.34
2023-04-30T21:22:56.489Z,100452.81
2023-04-30T21:25:23.044Z,100454.78
2023-04-30T21:27:49.962Z,100451.25
2023-04-30T21:30:17.037Z,100451.06
2023-04-30T21:32:46.981Z,100451.00
2023-04-30T21:35:19.137Z,100454.91
2023-04-30T21:37:45.588Z,100449.16
2023-04-30T21:40:12.232Z,100454.44
2023-04-30T21:42:39.975Z,100445.00
2023-04-30T21:45:24.587Z,100438.03
2023-04-30T21:47:51.149Z,100441.75
2023-04-30T21:50:17.713Z,100439.28
2023-04-30T21:52:44.372Z,100438.25
2023-04-30T21:55:11.081Z,100433.66
2023-04-30T21:57:37.610Z,100430.19
2023-04-30T22:00:06.558Z,100431.66
2023-04-30T22:02:33.800Z,100431.84
2023-04-30T22:05:00.876Z,100438.00
2023-04-30T22:07:30.041Z,100436.78
2023-04-30T22:09:57.433Z,100430.66
2023-04-30T22:12:25.224Z,100434.66
2023-04-30T22:14:55.414Z,100431.50
2023-04-30T22:17:22.691Z,100434.78
2023-04-30T22:19:49.196Z,100433.22
2023-04-30T22:22:16.013Z,100432.13
2023-04-30T22:24:42.637Z,100429.34
2023-04-30T22:27:09.054Z,100419.22
2023-04-30T22:29:35.702Z,100416.06
2023-04-30T22:32:02.493Z,100414.53
2023-04-30T22:34:29.211Z,100420.06
2023-04-30T22:36:56.553Z,100432.44
2023-04-30T22:39:22.997Z,100420.03
2023-04-30T22:41:50.856Z,100419.34
2023-04-30T22:44:18.691Z,100402.97
2023-04-30T22:46:46.035Z,100406.25
2023-04-30T22:49:23.792Z,100406.25
2023-04-30T22:51:57.495Z,100407.88
2023-04-30T22:54:24.460Z,100402.59
2023-04-30T22:56:50.873Z,100409.31
2023-04-30T22:59:17.302Z,100395.19
2023-04-30T23:01:43.789Z,100398.97
2023-04-30T23:04:10.372Z,100408.00
2023-04-30T23:06:36.851Z,100406.56
2023-04-30T23:09:03.623Z,100398.97
2023-04-30T23:11:29.980Z,100403.28
2023-04-30T23:13:57.228Z,100405.44
2023-04-30T23:16:24.980Z,100398.88
2023-04-30T23:18:51.617Z,100400.31
2023-04-30T23:21:18.165Z,100395.19
2023-04-30T23:23:45.000Z,100401.03
2023-04-30T23:26:11.559Z,100393.56
2023-04-30T23:28:38.230Z,100394.16
2023-04-30T23:31:04.792Z,100395.09
2023-04-30T23:33:31.297Z,100394.03
2023-04-30T23:35:57.921Z,100392.09
2023-04-30T23:38:25.519Z,100390.91
2023-04-30T23:40:52.225Z,100387.63
2023-04-30T23:43:18.792Z,100392.53
2023-04-30T23:45:45.455Z,100388.19
2023-04-30T23:48:12.041Z,100387.69
2023-04-30T23:50:38.570Z,100391.16
2023-04-30T23:53:05.114Z,100381.84
2023-04-30T23:55:31.869Z,100378.56
2023-04-30T23:57:58.396Z,100386.34
